sensor_id;sensor_type;location;lat;lon;timestamp;P1;durP1;ratioP1;P2;durP2;ratioP2
26920;SDS011;14483;47.844;9.660;2022-12-08T00:00:41;21.13;;;11.00;;
26920;SDS011;14483;47.844;9.660;2022-12-08T00:03:07;23.60;;;10.73;;
26920;SDS011;14483;47.844;9.660;2022-12-08T00:05:34;26.27;;;11.55;;
26920;SDS011;14483;47.844;9.660;2022-12-08T00:08:17;20.90;;;10.13;;
26920;SDS011;14483;47.844;9.660;2022-12-08T00:11:03;20.05;;;9.20;;
26920;SDS011;14483;47.844;9.660;2022-12-08T00:13:29;19.08;;;8.75;;
26920;SDS011;14483;47.844;9.660;2022-12-08T00:15:58;21.45;;;9.52;;
26920;SDS011;14483;47.844;9.660;2022-12-08T00:18:24;17.77;;;8.63;;
26920;SDS011;14483;47.844;9.660;2022-12-08T00:20:53;17.60;;;8.43;;
26920;SDS011;14483;47.844;9.660;2022-12-08T00:23:19;19.63;;;8.85;;
26920;SDS011;14483;47.844;9.660;2022-12-08T00:25:46;20.83;;;9.23;;
26920;SDS011;14483;47.844;9.660;2022-12-08T00:28:14;19.52;;;9.30;;
26920;SDS011;14483;47.844;9.660;2022-12-08T00:30:40;18.30;;;8.65;;
26920;SDS011;14483;47.844;9.660;2022-12-08T00:33:07;15.85;;;7.80;;
26920;SDS011;14483;47.844;9.660;2022-12-08T00:35:33;17.65;;;8.63;;
26920;SDS011;14483;47.844;9.660;2022-12-08T00:38:00;15.80;;;7.80;;
26920;SDS011;14483;47.844;9.660;2022-12-08T00:40:26;20.70;;;9.25;;
26920;SDS011;14483;47.844;9.660;2022-12-08T00:42:53;17.42;;;7.93;;
26920;SDS011;14483;47.844;9.660;2022-12-08T00:45:20;21.88;;;9.77;;
26920;SDS011;14483;47.844;9.660;2022-12-08T00:47:47;19.33;;;9.27;;
26920;SDS011;14483;47.844;9.660;2022-12-08T00:50:13;18.08;;;8.93;;
26920;SDS011;14483;47.844;9.660;2022-12-08T00:52:39;17.40;;;8.60;;
26920;SDS011;14483;47.844;9.660;2022-12-08T00:55:06;16.35;;;8.02;;
26920;SDS011;14483;47.844;9.660;2022-12-08T00:57:32;15.82;;;8.05;;
26920;SDS011;14483;47.844;9.660;2022-12-08T00:59:59;17.00;;;8.00;;
26920;SDS011;14483;47.844;9.660;2022-12-08T01:02:26;13.52;;;8.05;;
26920;SDS011;14483;47.844;9.660;2022-12-08T01:04:53;20.33;;;10.35;;
26920;SDS011;14483;47.844;9.660;2022-12-08T01:07:19;21.10;;;9.77;;
26920;SDS011;14483;47.844;9.660;2022-12-08T01:09:46;17.63;;;8.60;;
26920;SDS011;14483;47.844;9.660;2022-12-08T01:12:12;22.05;;;10.25;;
26920;SDS011;14483;47.844;9.660;2022-12-08T01:14:38;19.05;;;9.52;;
26920;SDS011;14483;47.844;9.660;2022-12-08T01:17:05;22.35;;;9.73;;
26920;SDS011;14483;47.844;9.660;2022-12-08T01:19:33;19.95;;;9.20;;
26920;SDS011;14483;47.844;9.660;2022-12-08T01:21:59;18.65;;;8.77;;
26920;SDS011;14483;47.844;9.660;2022-12-08T01:24:26;18.33;;;9.10;;
26920;SDS011;14483;47.844;9.660;2022-12-08T01:26:52;19.35;;;9.43;;
26920;SDS011;14483;47.844;9.660;2022-12-08T01:29:18;19.67;;;9.90;;
26920;SDS011;14483;47.844;9.660;2022-12-08T01:31:45;17.45;;;9.15;;
26920;SDS011;14483;47.844;9.660;2022-12-08T01:34:11;20.17;;;8.50;;
26920;SDS011;14483;47.844;9.660;2022-12-08T01:36:39;19.02;;;9.05;;
26920;SDS011;14483;47.844;9.660;2022-12-08T01:39:07;21.45;;;9.60;;
26920;SDS011;14483;47.844;9.660;2022-12-08T01:41:34;17.63;;;8.98;;
26920;SDS011;14483;47.844;9.660;2022-12-08T01:44:02;21.08;;;10.25;;
26920;SDS011;14483;47.844;9.660;2022-12-08T01:46:30;17.25;;;9.07;;
26920;SDS011;14483;47.844;9.660;2022-12-08T01:48:59;17.10;;;9.50;;
26920;SDS011;14483;47.844;9.660;2022-12-08T01:51:26;23.60;;;10.23;;
26920;SDS011;14483;47.844;9.660;2022-12-08T01:53:54;17.15;;;8.65;;
26920;SDS011;14483;47.844;9.660;2022-12-08T01:56:22;19.67;;;9.13;;
26920;SDS011;14483;47.844;9.660;2022-12-08T01:58:51;19.08;;;9.60;;
26920;SDS011;14483;47.844;9.660;2022-12-08T02:01:18;18.45;;;9.02;;
26920;SDS011;14483;47.844;9.660;2022-12-08T02:03:45;18.38;;;9.73;;
26920;SDS011;14483;47.844;9.660;2022-12-08T02:06:12;20.33;;;10.27;;
26920;SDS011;14483;47.844;9.660;2022-12-08T02:08:39;18.88;;;9.57;;
26920;SDS011;14483;47.844;9.660;2022-12-08T02:11:09;18.98;;;8.63;;
26920;SDS011;14483;47.844;9.660;2022-12-08T02:13:35;22.08;;;9.27;;
26920;SDS011;14483;47.844;9.660;2022-12-08T02:16:02;18.02;;;9.32;;
26920;SDS011;14483;47.844;9.660;2022-12-08T02:18:38;17.27;;;8.48;;
26920;SDS011;14483;47.844;9.660;2022-12-08T02:21:07;19.00;;;8.27;;
26920;SDS011;14483;47.844;9.660;2022-12-08T02:23:37;16.63;;;9.05;;
26920;SDS011;14483;47.844;9.660;2022-12-08T02:26:19;21.20;;;10.23;;
26920;SDS011;14483;47.844;9.660;2022-12-08T02:28:57;19.75;;;8.90;;
26920;SDS011;14483;47.844;9.660;2022-12-08T02:31:30;16.02;;;8.65;;
26920;SDS011;14483;47.844;9.660;2022-12-08T02:34:04;16.80;;;8.63;;
26920;SDS011;14483;47.844;9.660;2022-12-08T02:36:36;15.95;;;7.88;;
26920;SDS011;14483;47.844;9.660;2022-12-08T02:39:09;17.52;;;8.93;;
26920;SDS011;14483;47.844;9.660;2022-12-08T02:41:37;18.30;;;8.38;;
26920;SDS011;14483;47.844;9.660;2022-12-08T02:44:07;13.77;;;7.47;;
26920;SDS011;14483;47.844;9.660;2022-12-08T02:46:37;16.63;;;8.82;;
26920;SDS011;14483;47.844;9.660;2022-12-08T02:49:06;17.27;;;9.75;;
26920;SDS011;14483;47.844;9.660;2022-12-08T02:51:32;15.65;;;7.97;;
26920;SDS011;14483;47.844;9.660;2022-12-08T02:53:58;18.38;;;9.43;;
26920;SDS011;14483;47.844;9.660;2022-12-08T02:56:35;17.05;;;8.13;;
26920;SDS011;14483;47.844;9.660;2022-12-08T02:59:08;17.13;;;8.20;;
26920;SDS011;14483;47.844;9.660;2022-12-08T03:01:43;15.75;;;7.95;;
26920;SDS011;14483;47.844;9.660;2022-12-08T03:04:15;17.70;;;8.57;;
26920;SDS011;14483;47.844;9.660;2022-12-08T03:06:47;14.00;;;7.80;;
26920;SDS011;14483;47.844;9.660;2022-12-08T03:09:16;17.00;;;7.90;;
26920;SDS011;14483;47.844;9.660;2022-12-08T03:11:46;14.93;;;7.38;;
26920;SDS011;14483;47.844;9.660;2022-12-08T03:14:13;12.68;;;7.20;;
26920;SDS011;14483;47.844;9.660;2022-12-08T03:16:42;17.33;;;8.60;;
26920;SDS011;14483;47.844;9.660;2022-12-08T03:19:11;16.83;;;9.05;;
26920;SDS011;14483;47.844;9.660;2022-12-08T03:21:40;18.27;;;8.75;;
26920;SDS011;14483;47.844;9.660;2022-12-08T03:24:08;15.25;;;7.47;;
26920;SDS011;14483;47.844;9.660;2022-12-08T03:26:37;16.48;;;8.88;;
26920;SDS011;14483;47.844;9.660;2022-12-08T03:29:06;17.27;;;8.35;;
26920;SDS011;14483;47.844;9.660;2022-12-08T03:31:33;16.40;;;8.65;;
26920;SDS011;14483;47.844;9.660;2022-12-08T03:34:02;16.65;;;8.82;;
26920;SDS011;14483;47.844;9.660;2022-12-08T03:36:29;15.95;;;9.07;;
26920;SDS011;14483;47.844;9.660;2022-12-08T03:38:57;16.52;;;9.20;;
26920;SDS011;14483;47.844;9.660;2022-12-08T03:41:23;15.93;;;8.73;;
26920;SDS011;14483;47.844;9.660;2022-12-08T03:43:50;19.17;;;8.60;;
26920;SDS011;14483;47.844;9.660;2022-12-08T03:46:18;15.98;;;7.88;;
26920;SDS011;14483;47.844;9.660;2022-12-08T03:48:44;15.52;;;7.88;;
26920;SDS011;14483;47.844;9.660;2022-12-08T03:51:11;15.20;;;7.90;;
26920;SDS011;14483;47.844;9.660;2022-12-08T03:53:38;14.20;;;8.05;;
26920;SDS011;14483;47.844;9.660;2022-12-08T03:56:10;16.98;;;8.55;;
26920;SDS011;14483;47.844;9.660;2022-12-08T03:58:39;14.35;;;7.80;;
26920;SDS011;14483;47.844;9.660;2022-12-08T04:01:06;16.15;;;7.20;;
26920;SDS011;14483;47.844;9.660;2022-12-08T04:03:32;15.05;;;7.88;;
26920;SDS011;14483;47.844;9.660;2022-12-08T04:05:58;17.63;;;8.68;;
26920;SDS011;14483;47.844;9.660;2022-12-08T04:08:25;16.02;;;7.82;;
26920;SDS011;14483;47.844;9.660;2022-12-08T04:10:51;16.85;;;7.68;;
26920;SDS011;14483;47.844;9.660;2022-12-08T04:13:19;15.45;;;8.30;;
26920;SDS011;14483;47.844;9.660;2022-12-08T04:15:45;19.70;;;7.75;;
26920;SDS011;14483;47.844;9.660;2022-12-08T04:18:12;15.93;;;8.05;;
26920;SDS011;14483;47.844;9.660;2022-12-08T04:20:38;16.48;;;8.98;;
26920;SDS011;14483;47.844;9.660;2022-12-08T04:23:05;17.55;;;7.90;;
26920;SDS011;14483;47.844;9.660;2022-12-08T04:25:32;16.90;;;8.02;;
26920;SDS011;14483;47.844;9.660;2022-12-08T04:27:58;15.02;;;7.25;;
26920;SDS011;14483;47.844;9.660;2022-12-08T04:30:26;16.70;;;8.23;;
26920;SDS011;14483;47.844;9.660;2022-12-08T04:32:53;16.23;;;7.97;;
26920;SDS011;14483;47.844;9.660;2022-12-08T04:35:19;17.05;;;8.68;;
26920;SDS011;14483;47.844;9.660;2022-12-08T04:37:45;21.67;;;9.05;;
26920;SDS011;14483;47.844;9.660;2022-12-08T04:40:12;17.50;;;7.93;;
26920;SDS011;14483;47.844;9.660;2022-12-08T04:42:39;16.35;;;8.50;;
26920;SDS011;14483;47.844;9.660;2022-12-08T04:45:05;17.65;;;8.45;;
26920;SDS011;14483;47.844;9.660;2022-12-08T04:47:33;19.25;;;7.90;;
26920;SDS011;14483;47.844;9.660;2022-12-08T04:50:00;23.48;;;8.68;;
26920;SDS011;14483;47.844;9.660;2022-12-08T04:52:26;17.02;;;8.02;;
26920;SDS011;14483;47.844;9.660;2022-12-08T04:54:52;18.02;;;8.18;;
26920;SDS011;14483;47.844;9.660;2022-12-08T04:57:19;19.52;;;9.98;;
26920;SDS011;14483;47.844;9.660;2022-12-08T04:59:45;18.55;;;8.75;;
26920;SDS011;14483;47.844;9.660;2022-12-08T05:02:11;18.70;;;8.98;;
26920;SDS011;14483;47.844;9.660;2022-12-08T05:04:39;16.38;;;8.80;;
26920;SDS011;14483;47.844;9.660;2022-12-08T05:07:06;17.73;;;8.07;;
26920;SDS011;14483;47.844;9.660;2022-12-08T05:09:32;16.20;;;7.72;;
26920;SDS011;14483;47.844;9.660;2022-12-08T05:11:58;14.70;;;7.82;;
26920;SDS011;14483;47.844;9.660;2022-12-08T05:14:25;17.50;;;8.40;;
26920;SDS011;14483;47.844;9.660;2022-12-08T05:16:51;18.50;;;8.60;;
26920;SDS011;14483;47.844;9.660;2022-12-08T05:19:17;15.23;;;8.10;;
26920;SDS011;14483;47.844;9.660;2022-12-08T05:21:45;18.77;;;8.82;;
26920;SDS011;14483;47.844;9.660;2022-12-08T05:24:11;17.98;;;8.90;;
26920;SDS011;14483;47.844;9.660;2022-12-08T05:26:38;17.17;;;8.63;;
26920;SDS011;14483;47.844;9.660;2022-12-08T05:29:04;18.45;;;8.65;;
26920;SDS011;14483;47.844;9.660;2022-12-08T05:31:31;17.38;;;8.02;;
26920;SDS011;14483;47.844;9.660;2022-12-08T05:33:57;18.60;;;9.45;;
26920;SDS011;14483;47.844;9.660;2022-12-08T05:36:23;14.43;;;7.63;;
26920;SDS011;14483;47.844;9.660;2022-12-08T05:38:51;16.05;;;8.10;;
26920;SDS011;14483;47.844;9.660;2022-12-08T05:41:18;14.25;;;8.13;;
26920;SDS011;14483;47.844;9.660;2022-12-08T05:43:45;14.60;;;7.97;;
26920;SDS011;14483;47.844;9.660;2022-12-08T05:46:11;19.85;;;9.30;;
26920;SDS011;14483;47.844;9.660;2022-12-08T05:48:38;25.80;;;10.77;;
26920;SDS011;14483;47.844;9.660;2022-12-08T05:51:06;20.65;;;10.07;;
26920;SDS011;14483;47.844;9.660;2022-12-08T05:53:32;15.80;;;8.48;;
26920;SDS011;14483;47.844;9.660;2022-12-08T05:56:00;16.65;;;8.80;;
26920;SDS011;14483;47.844;9.660;2022-12-08T05:58:27;17.55;;;8.10;;
26920;SDS011;14483;47.844;9.660;2022-12-08T06:00:53;21.83;;;9.80;;
26920;SDS011;14483;47.844;9.660;2022-12-08T06:03:19;18.38;;;9.55;;
26920;SDS011;14483;47.844;9.660;2022-12-08T06:05:46;18.42;;;8.80;;
26920;SDS011;14483;47.844;9.660;2022-12-08T06:08:12;17.77;;;8.45;;
26920;SDS011;14483;47.844;9.660;2022-12-08T06:10:38;19.65;;;9.90;;
26920;SDS011;14483;47.844;9.660;2022-12-08T06:13:06;22.00;;;9.77;;
26920;SDS011;14483;47.844;9.660;2022-12-08T06:15:33;19.23;;;11.02;;
26920;SDS011;14483;47.844;9.660;2022-12-08T06:17:59;19.17;;;10.27;;
26920;SDS011;14483;47.844;9.660;2022-12-08T06:20:26;24.40;;;11.40;;
26920;SDS011;14483;47.844;9.660;2022-12-08T06:22:52;48.78;;;24.63;;
26920;SDS011;14483;47.844;9.660;2022-12-08T06:25:19;20.15;;;10.43;;
26920;SDS011;14483;47.844;9.660;2022-12-08T06:27:45;16.05;;;8.50;;
26920;SDS011;14483;47.844;9.660;2022-12-08T06:30:13;19.35;;;10.10;;
26920;SDS011;14483;47.844;9.660;2022-12-08T06:32:40;21.50;;;10.70;;
26920;SDS011;14483;47.844;9.660;2022-12-08T06:35:07;22.13;;;11.85;;
26920;SDS011;14483;47.844;9.660;2022-12-08T06:37:33;21.52;;;9.95;;
26920;SDS011;14483;47.844;9.660;2022-12-08T06:40:00;19.00;;;10.57;;
26920;SDS011;14483;47.844;9.660;2022-12-08T06:42:26;18.40;;;10.40;;
26920;SDS011;14483;47.844;9.660;2022-12-08T06:45:07;21.90;;;10.35;;
26920;SDS011;14483;47.844;9.660;2022-12-08T06:47:34;27.63;;;10.75;;
26920;SDS011;14483;47.844;9.660;2022-12-08T06:50:01;28.98;;;10.43;;
26920;SDS011;14483;47.844;9.660;2022-12-08T06:52:27;20.55;;;10.38;;
26920;SDS011;14483;47.844;9.660;2022-12-08T06:54:54;24.45;;;11.63;;
26920;SDS011;14483;47.844;9.660;2022-12-08T06:57:20;22.10;;;11.35;;
26920;SDS011;14483;47.844;9.660;2022-12-08T06:59:48;25.15;;;11.65;;
26920;SDS011;14483;47.844;9.660;2022-12-08T07:02:14;21.65;;;10.60;;
26920;SDS011;14483;47.844;9.660;2022-12-08T07:04:42;19.10;;;9.13;;
26920;SDS011;14483;47.844;9.660;2022-12-08T07:07:08;21.13;;;11.15;;
26920;SDS011;14483;47.844;9.660;2022-12-08T07:09:35;22.48;;;11.23;;
26920;SDS011;14483;47.844;9.660;2022-12-08T07:12:01;25.92;;;12.27;;
26920;SDS011;14483;47.844;9.660;2022-12-08T07:14:28;19.80;;;9.98;;
26920;SDS011;14483;47.844;9.660;2022-12-08T07:16:54;21.92;;;10.23;;
26920;SDS011;14483;47.844;9.660;2022-12-08T07:19:21;24.75;;;9.63;;
26920;SDS011;14483;47.844;9.660;2022-12-08T07:21:48;22.05;;;9.73;;
26920;SDS011;14483;47.844;9.660;2022-12-08T07:24:15;22.58;;;9.73;;
26920;SDS011;14483;47.844;9.660;2022-12-08T07:26:41;18.75;;;9.70;;
26920;SDS011;14483;47.844;9.660;2022-12-08T07:29:08;16.52;;;9.30;;
26920;SDS011;14483;47.844;9.660;2022-12-08T07:31:34;21.45;;;9.38;;
26920;SDS011;14483;47.844;9.660;2022-12-08T07:34:01;22.73;;;10.13;;
26920;SDS011;14483;47.844;9.660;2022-12-08T07:36:27;21.83;;;10.68;;
26920;SDS011;14483;47.844;9.660;2022-12-08T07:38:55;19.48;;;8.45;;
26920;SDS011;14483;47.844;9.660;2022-12-08T07:41:22;20.83;;;10.38;;
26920;SDS011;14483;47.844;9.660;2022-12-08T07:43:49;20.05;;;10.07;;
26920;SDS011;14483;47.844;9.660;2022-12-08T07:46:16;19.27;;;9.48;;
26920;SDS011;14483;47.844;9.660;2022-12-08T07:48:43;24.75;;;10.25;;
26920;SDS011;14483;47.844;9.660;2022-12-08T07:51:10;21.67;;;10.60;;
26920;SDS011;14483;47.844;9.660;2022-12-08T07:53:37;20.70;;;10.68;;
26920;SDS011;14483;47.844;9.660;2022-12-08T07:56:06;24.15;;;10.23;;
26920;SDS011;14483;47.844;9.660;2022-12-08T07:58:33;19.08;;;9.35;;
26920;SDS011;14483;47.844;9.660;2022-12-08T08:00:59;24.40;;;9.43;;
26920;SDS011;14483;47.844;9.660;2022-12-08T08:03:26;21.90;;;9.93;;
26920;SDS011;14483;47.844;9.660;2022-12-08T08:05:52;22.92;;;11.10;;
26920;SDS011;14483;47.844;9.660;2022-12-08T08:08:20;27.15;;;10.40;;
26920;SDS011;14483;47.844;9.660;2022-12-08T08:10:46;20.58;;;10.40;;
26920;SDS011;14483;47.844;9.660;2022-12-08T08:13:14;22.80;;;10.65;;
26920;SDS011;14483;47.844;9.660;2022-12-08T08:15:40;18.73;;;9.57;;
26920;SDS011;14483;47.844;9.660;2022-12-08T08:18:06;21.42;;;10.48;;
26920;SDS011;14483;47.844;9.660;2022-12-08T08:20:33;20.40;;;10.23;;
26920;SDS011;14483;47.844;9.660;2022-12-08T08:22:59;18.63;;;10.00;;
26920;SDS011;14483;47.844;9.660;2022-12-08T08:25:25;18.30;;;9.98;;
26920;SDS011;14483;47.844;9.660;2022-12-08T08:27:52;20.02;;;10.15;;
26920;SDS011;14483;47.844;9.660;2022-12-08T08:30:20;21.05;;;10.60;;
26920;SDS011;14483;47.844;9.660;2022-12-08T08:32:47;22.27;;;10.73;;
26920;SDS011;14483;47.844;9.660;2022-12-08T08:35:13;21.02;;;10.15;;
26920;SDS011;14483;47.844;9.660;2022-12-08T08:37:39;20.30;;;11.18;;
26920;SDS011;14483;47.844;9.660;2022-12-08T08:40:06;22.65;;;10.63;;
26920;SDS011;14483;47.844;9.660;2022-12-08T08:42:33;19.52;;;11.07;;
26920;SDS011;14483;47.844;9.660;2022-12-08T08:44:59;21.65;;;10.27;;
26920;SDS011;14483;47.844;9.660;2022-12-08T08:47:27;20.20;;;10.50;;
26920;SDS011;14483;47.844;9.660;2022-12-08T08:49:53;21.60;;;12.07;;
26920;SDS011;14483;47.844;9.660;2022-12-08T08:52:19;23.70;;;11.77;;
26920;SDS011;14483;47.844;9.660;2022-12-08T08:54:46;21.25;;;9.98;;
26920;SDS011;14483;47.844;9.660;2022-12-08T08:57:12;23.83;;;11.60;;
26920;SDS011;14483;47.844;9.660;2022-12-08T08:59:39;25.70;;;13.15;;
26920;SDS011;14483;47.844;9.660;2022-12-08T09:02:05;29.90;;;12.77;;
26920;SDS011;14483;47.844;9.660;2022-12-08T09:04:33;25.48;;;11.65;;
26920;SDS011;14483;47.844;9.660;2022-12-08T09:06:59;25.30;;;12.20;;
26920;SDS011;14483;47.844;9.660;2022-12-08T09:09:26;24.02;;;12.07;;
26920;SDS011;14483;47.844;9.660;2022-12-08T09:11:52;24.65;;;12.00;;
26920;SDS011;14483;47.844;9.660;2022-12-08T09:14:19;22.63;;;11.07;;
26920;SDS011;14483;47.844;9.660;2022-12-08T09:16:47;24.05;;;11.65;;
26920;SDS011;14483;47.844;9.660;2022-12-08T09:19:13;23.65;;;12.25;;
26920;SDS011;14483;47.844;9.660;2022-12-08T09:21:41;24.20;;;12.55;;
26920;SDS011;14483;47.844;9.660;2022-12-08T09:24:07;25.65;;;12.10;;
26920;SDS011;14483;47.844;9.660;2022-12-08T09:26:39;25.83;;;12.20;;
26920;SDS011;14483;47.844;9.660;2022-12-08T09:29:06;23.83;;;12.13;;
26920;SDS011;14483;47.844;9.660;2022-12-08T09:31:32;22.88;;;11.13;;
26920;SDS011;14483;47.844;9.660;2022-12-08T09:33:58;26.58;;;12.05;;
26920;SDS011;14483;47.844;9.660;2022-12-08T09:36:25;25.48;;;11.13;;
26920;SDS011;14483;47.844;9.660;2022-12-08T09:38:53;21.08;;;11.55;;
26920;SDS011;14483;47.844;9.660;2022-12-08T09:41:21;24.08;;;10.70;;
26920;SDS011;14483;47.844;9.660;2022-12-08T09:43:55;20.35;;;10.63;;
26920;SDS011;14483;47.844;9.660;2022-12-08T09:46:24;22.50;;;10.77;;
26920;SDS011;14483;47.844;9.660;2022-12-08T09:48:51;22.42;;;11.35;;
26920;SDS011;14483;47.844;9.660;2022-12-08T09:51:20;22.48;;;10.73;;
26920;SDS011;14483;47.844;9.660;2022-12-08T09:53:49;19.48;;;10.77;;
26920;SDS011;14483;47.844;9.660;2022-12-08T09:56:18;18.42;;;9.50;;
26920;SDS011;14483;47.844;9.660;2022-12-08T09:58:48;19.17;;;10.27;;
26920;SDS011;14483;47.844;9.660;2022-12-08T10:01:17;24.00;;;11.82;;
26920;SDS011;14483;47.844;9.660;2022-12-08T10:03:43;27.02;;;11.75;;
26920;SDS011;14483;47.844;9.660;2022-12-08T10:06:11;20.92;;;11.55;;
26920;SDS011;14483;47.844;9.660;2022-12-08T10:08:42;17.52;;;9.63;;
26920;SDS011;14483;47.844;9.660;2022-12-08T10:11:12;17.73;;;9.18;;
26920;SDS011;14483;47.844;9.660;2022-12-08T10:13:41;22.08;;;10.88;;
26920;SDS011;14483;47.844;9.660;2022-12-08T10:16:14;25.85;;;12.52;;
26920;SDS011;14483;47.844;9.660;2022-12-08T10:18:42;21.20;;;10.77;;
26920;SDS011;14483;47.844;9.660;2022-12-08T10:21:14;18.40;;;10.63;;
26920;SDS011;14483;47.844;9.660;2022-12-08T10:23:42;20.02;;;9.68;;
26920;SDS011;14483;47.844;9.660;2022-12-08T10:26:11;23.85;;;10.00;;
26920;SDS011;14483;47.844;9.660;2022-12-08T10:28:37;22.08;;;9.75;;
26920;SDS011;14483;47.844;9.660;2022-12-08T10:31:05;22.35;;;9.57;;
26920;SDS011;14483;47.844;9.660;2022-12-08T10:33:32;18.75;;;10.15;;
26920;SDS011;14483;47.844;9.660;2022-12-08T10:35:59;18.60;;;9.93;;
26920;SDS011;14483;47.844;9.660;2022-12-08T10:38:28;21.25;;;11.60;;
26920;SDS011;14483;47.844;9.660;2022-12-08T10:40:57;20.55;;;10.32;;
26920;SDS011;14483;47.844;9.660;2022-12-08T10:43:24;21.48;;;9.57;;
26920;SDS011;14483;47.844;9.660;2022-12-08T10:45:52;17.13;;;9.55;;
26920;SDS011;14483;47.844;9.660;2022-12-08T10:48:20;19.27;;;10.10;;
26920;SDS011;14483;47.844;9.660;2022-12-08T10:50:51;16.85;;;8.88;;
26920;SDS011;14483;47.844;9.660;2022-12-08T10:53:18;17.58;;;9.98;;
26920;SDS011;14483;47.844;9.660;2022-12-08T10:55:47;20.02;;;10.25;;
26920;SDS011;14483;47.844;9.660;2022-12-08T11:01:05;20.80;;;9.88;;
26920;SDS011;14483;47.844;9.660;2022-12-08T11:03:36;18.85;;;9.82;;
26920;SDS011;14483;47.844;9.660;2022-12-08T11:06:14;17.67;;;9.55;;
26920;SDS011;14483;47.844;9.660;2022-12-08T11:08:43;18.45;;;10.30;;
26920;SDS011;14483;47.844;9.660;2022-12-08T11:11:10;19.48;;;9.93;;
26920;SDS011;14483;47.844;9.660;2022-12-08T11:13:38;16.65;;;9.05;;
26920;SDS011;14483;47.844;9.660;2022-12-08T11:16:06;19.95;;;10.18;;
26920;SDS011;14483;47.844;9.660;2022-12-08T11:18:37;21.10;;;9.98;;
26920;SDS011;14483;47.844;9.660;2022-12-08T11:21:07;18.75;;;8.25;;
26920;SDS011;14483;47.844;9.660;2022-12-08T11:23:35;17.80;;;8.88;;
26920;SDS011;14483;47.844;9.660;2022-12-08T11:26:03;17.60;;;9.05;;
26920;SDS011;14483;47.844;9.660;2022-12-08T11:28:31;17.30;;;8.80;;
26920;SDS011;14483;47.844;9.660;2022-12-08T11:30:59;15.93;;;8.52;;
26920;SDS011;14483;47.844;9.660;2022-12-08T11:33:27;14.60;;;7.63;;
26920;SDS011;14483;47.844;9.660;2022-12-08T11:35:54;15.38;;;7.78;;
26920;SDS011;14483;47.844;9.660;2022-12-08T11:38:23;16.50;;;9.43;;
26920;SDS011;14483;47.844;9.660;2022-12-08T11:40:51;19.02;;;8.52;;
26920;SDS011;14483;47.844;9.660;2022-12-08T11:43:18;13.88;;;7.70;;
26920;SDS011;14483;47.844;9.660;2022-12-08T11:45:47;14.45;;;7.78;;
26920;SDS011;14483;47.844;9.660;2022-12-08T11:48:15;16.48;;;8.30;;
26920;SDS011;14483;47.844;9.660;2022-12-08T11:50:44;18.42;;;7.40;;
26920;SDS011;14483;47.844;9.660;2022-12-08T11:53:14;19.55;;;8.63;;
26920;SDS011;14483;47.844;9.660;2022-12-08T11:55:44;17.48;;;7.68;;
26920;SDS011;14483;47.844;9.660;2022-12-08T11:58:13;18.30;;;8.95;;
26920;SDS011;14483;47.844;9.660;2022-12-08T12:00:41;15.52;;;8.35;;
26920;SDS011;14483;47.844;9.660;2022-12-08T12:03:10;13.07;;;7.22;;
26920;SDS011;14483;47.844;9.660;2022-12-08T12:05:42;14.45;;;7.75;;
26920;SDS011;14483;47.844;9.660;2022-12-08T12:08:13;15.98;;;8.07;;
26920;SDS011;14483;47.844;9.660;2022-12-08T12:10:46;15.15;;;7.65;;
26920;SDS011;14483;47.844;9.660;2022-12-08T12:13:29;18.27;;;8.48;;
26920;SDS011;14483;47.844;9.660;2022-12-08T12:16:07;17.33;;;8.70;;
26920;SDS011;14483;47.844;9.660;2022-12-08T12:18:37;17.38;;;8.73;;
26920;SDS011;14483;47.844;9.660;2022-12-08T12:21:06;15.20;;;7.35;;
26920;SDS011;14483;47.844;9.660;2022-12-08T12:23:36;15.38;;;7.82;;
26920;SDS011;14483;47.844;9.660;2022-12-08T12:26:06;16.80;;;7.72;;
26920;SDS011;14483;47.844;9.660;2022-12-08T12:28:36;15.73;;;7.43;;
26920;SDS011;14483;47.844;9.660;2022-12-08T12:31:05;13.43;;;8.07;;
26920;SDS011;14483;47.844;9.660;2022-12-08T12:33:33;16.23;;;9.05;;
26920;SDS011;14483;47.844;9.660;2022-12-08T12:36:01;17.55;;;8.57;;
26920;SDS011;14483;47.844;9.660;2022-12-08T12:38:29;22.45;;;10.00;;
26920;SDS011;14483;47.844;9.660;2022-12-08T12:41:15;13.32;;;7.68;;
26920;SDS011;14483;47.844;9.660;2022-12-08T12:46:39;17.92;;;8.02;;
26920;SDS011;14483;47.844;9.660;2022-12-08T12:51:47;12.15;;;7.05;;
26920;SDS011;14483;47.844;9.660;2022-12-08T12:54:19;10.30;;;6.25;;
26920;SDS011;14483;47.844;9.660;2022-12-08T12:56:52;13.95;;;6.47;;
26920;SDS011;14483;47.844;9.660;2022-12-08T12:59:34;13.77;;;6.68;;
26920;SDS011;14483;47.844;9.660;2022-12-08T13:02:00;12.65;;;6.65;;
26920;SDS011;14483;47.844;9.660;2022-12-08T13:04:31;16.27;;;7.00;;
26920;SDS011;14483;47.844;9.660;2022-12-08T13:06:58;12.50;;;6.88;;
26920;SDS011;14483;47.844;9.660;2022-12-08T13:09:30;12.55;;;7.05;;
26920;SDS011;14483;47.844;9.660;2022-12-08T13:11:58;13.27;;;6.10;;
26920;SDS011;14483;47.844;9.660;2022-12-08T13:14:26;11.35;;;6.55;;
26920;SDS011;14483;47.844;9.660;2022-12-08T13:16:54;15.05;;;6.75;;
26920;SDS011;14483;47.844;9.660;2022-12-08T13:19:21;12.45;;;7.43;;
26920;SDS011;14483;47.844;9.660;2022-12-08T13:21:47;13.50;;;6.55;;
26920;SDS011;14483;47.844;9.660;2022-12-08T13:24:14;15.38;;;6.13;;
26920;SDS011;14483;47.844;9.660;2022-12-08T13:26:44;13.40;;;6.70;;
26920;SDS011;14483;47.844;9.660;2022-12-08T13:29:13;10.93;;;5.88;;
26920;SDS011;14483;47.844;9.660;2022-12-08T13:31:40;13.27;;;6.65;;
26920;SDS011;14483;47.844;9.660;2022-12-08T13:34:10;14.52;;;7.00;;
26920;SDS011;14483;47.844;9.660;2022-12-08T13:36:39;13.07;;;6.47;;
26920;SDS011;14483;47.844;9.660;2022-12-08T13:39:09;10.02;;;5.97;;
26920;SDS011;14483;47.844;9.660;2022-12-08T13:41:42;9.60;;;5.70;;
26920;SDS011;14483;47.844;9.660;2022-12-08T13:44:15;13.35;;;6.47;;
26920;SDS011;14483;47.844;9.660;2022-12-08T13:46:48;14.30;;;6.70;;
26920;SDS011;14483;47.844;9.660;2022-12-08T13:49:17;11.35;;;5.93;;
26920;SDS011;14483;47.844;9.660;2022-12-08T13:51:47;12.48;;;5.90;;
26920;SDS011;14483;47.844;9.660;2022-12-08T13:54:16;11.27;;;5.43;;
26920;SDS011;14483;47.844;9.660;2022-12-08T13:56:44;14.43;;;6.45;;
26920;SDS011;14483;47.844;9.660;2022-12-08T13:59:24;12.23;;;5.70;;
26920;SDS011;14483;47.844;9.660;2022-12-08T14:01:52;14.32;;;6.80;;
26920;SDS011;14483;47.844;9.660;2022-12-08T14:04:19;10.57;;;6.15;;
26920;SDS011;14483;47.844;9.660;2022-12-08T14:06:47;15.77;;;7.50;;
26920;SDS011;14483;47.844;9.660;2022-12-08T14:09:15;20.08;;;8.57;;
26920;SDS011;14483;47.844;9.660;2022-12-08T14:11:42;13.70;;;7.15;;
26920;SDS011;14483;47.844;9.660;2022-12-08T14:14:13;14.82;;;6.90;;
26920;SDS011;14483;47.844;9.660;2022-12-08T14:16:49;14.77;;;7.15;;
26920;SDS011;14483;47.844;9.660;2022-12-08T14:19:18;19.58;;;12.65;;
26920;SDS011;14483;47.844;9.660;2022-12-08T14:21:46;19.42;;;8.60;;
26920;SDS011;14483;47.844;9.660;2022-12-08T14:24:12;13.85;;;7.15;;
26920;SDS011;14483;47.844;9.660;2022-12-08T14:26:39;12.90;;;7.32;;
26920;SDS011;14483;47.844;9.660;2022-12-08T14:29:06;11.70;;;6.28;;
26920;SDS011;14483;47.844;9.660;2022-12-08T14:31:32;11.02;;;6.35;;
26920;SDS011;14483;47.844;9.660;2022-12-08T14:34:00;10.63;;;5.55;;
26920;SDS011;14483;47.844;9.660;2022-12-08T14:36:26;11.38;;;6.07;;
26920;SDS011;14483;47.844;9.660;2022-12-08T14:38:53;14.07;;;6.45;;
26920;SDS011;14483;47.844;9.660;2022-12-08T14:41:24;9.70;;;5.05;;
26920;SDS011;14483;47.844;9.660;2022-12-08T14:43:56;12.45;;;7.22;;